Time;durP1;ratioP1;P1;durP2;ratioP2;P2;SDS_P1;SDS_P2;PMS_P1;PMS_P2;Temp;Humidity;BMP_temperature;BMP_pressure;BME280_temperature;BME280_humidity;BME280_pressure;Samples;Min_cycle;Max_cycle;Signal;HPM_P1;HPM_P2
2022/11/17 00:08:35;;;;;;;7.90;5.10;;;;;;;21.17;60.45;98797.84;20681497;28;20046;-76
2022/11/17 00:29:06;;;;;;;7.88;5.38;;;;;;;21.16;60.52;98802.28;20691202;28;20892;-78
2022/11/17 00:39:07;;;;;;;8.37;5.80;;;;;;;21.18;60.09;98804.75;20691693;28;20052;-77
2022/11/17 00:49:09;;;;;;;8.32;5.40;;;;;;;21.18;60.17;98788.94;20697035;28;20049;-77
2022/11/17 00:59:10;;;;;;;7.22;5.53;;;;;;;21.15;60.25;98778.75;20695435;28;21417;-77
2022/11/17 01:09:14;;;;;;;7.75;5.60;;;;;;;21.15;60.11;98782.19;20696310;28;20045;-77
2022/11/17 01:19:17;;;;;;;7.35;5.50;;;;;;;21.10;59.78;98759.00;20691640;28;20422;-77
2022/11/17 01:29:18;;;;;;;6.78;5.30;;;;;;;21.07;59.58;98748.78;20691689;28;20045;-77
2022/11/17 01:39:18;;;;;;;7.85;5.63;;;;;;;21.05;59.83;98742.84;20685895;28;20057;-77
2022/11/17 01:49:27;;;;;;;6.57;5.22;;;;;;;21.01;59.68;98752.03;20683333;28;20038;-77
2022/11/17 01:59:34;;;;;;;6.60;5.43;;;;;;;21.04;59.82;98759.59;20694778;28;20050;-78
2022/11/17 02:09:38;;;;;;;6.90;5.30;;;;;;;21.04;59.44;98775.41;20684638;28;20072;-77
2022/11/17 02:19:41;;;;;;;7.65;5.20;;;;;;;21.00;59.69;98774.06;20690127;28;20038;-78
2022/11/17 02:29:52;;;;;;;6.82;5.00;;;;;;;21.01;59.57;98761.75;20683408;28;20042;-78
2022/11/17 02:40:00;;;;;;;6.00;4.60;;;;;;;20.99;59.30;98754.00;20686608;28;20042;-77
2022/11/17 02:50:11;;;;;;;6.78;5.20;;;;;;;20.99;59.70;98737.41;20683880;28;20038;-77
2022/11/17 03:00:16;;;;;;;5.13;4.55;;;;;;;20.95;59.72;98732.44;20691809;28;20046;-76
2022/11/17 03:10:27;;;;;;;6.72;4.95;;;;;;;20.93;59.75;98750.22;20677263;28;20141;-76
2022/11/17 03:20:38;;;;;;;18.92;4.60;;;;;;;20.93;59.53;98720.44;20666177;28;20041;-77
2022/11/17 03:30:41;;;;;;;6.57;5.22;;;;;;;20.91;59.14;98712.69;20672302;28;20041;-76
2022/11/17 03:40:46;;;;;;;6.40;4.88;;;;;;;20.91;59.49;98712.69;20660116;28;20046;-77
2022/11/17 03:50:54;;;;;;;7.07;5.10;;;;;;;20.89;59.41;98734.88;20684856;28;20611;-76
2022/11/17 04:00:57;;;;;;;7.75;5.10;;;;;;;20.88;59.44;98755.09;20692308;28;20073;-77
2022/11/17 04:21:16;;;;;;;6.22;4.63;;;;;;;20.86;58.99;98756.22;20683385;28;20758;-77
2022/11/17 04:31:25;;;;;;;5.63;4.30;;;;;;;20.84;59.11;98761.66;20669305;28;20122;-76
2022/11/17 04:51:47;;;;;;;5.03;4.03;;;;;;;20.85;59.79;98757.22;20695986;28;20057;-77
2022/11/17 05:01:48;;;;;;;5.18;4.22;;;;;;;20.84;59.24;98789.78;20693437;28;20046;-77
2022/11/17 05:32:30;;;;;;;7.03;4.97;;;;;;;21.08;60.53;98796.97;20685427;28;20034;-89
2022/11/17 05:42:36;;;;;;;5.82;3.75;;;;;;;21.18;60.78;98794.22;20713745;28;20100;-84
2022/11/17 05:52:37;;;;;;;11.20;3.90;;;;;;;21.28;60.78;98797.56;20709565;28;20038;-84
2022/11/17 06:02:50;;;;;;;10.32;5.63;;;;;;;21.23;57.70;98805.94;20684417;28;20049;-81
2022/11/17 06:12:50;;;;;;;14.32;4.90;;;;;;;21.31;58.01;98828.81;20695909;28;20046;-80
2022/11/17 06:22:51;;;;;;;18.17;5.78;;;;;;;21.32;56.43;98819.13;20657915;28;20061;-80
2022/11/17 06:32:52;;;;;;;9.85;5.30;;;;;;;21.38;57.43;98826.41;20700419;28;20096;-80
2022/11/17 06:43:08;;;;;;;12.00;4.57;;;;;;;21.42;58.08;98820.66;20713487;28;20054;-80
2022/11/17 06:53:11;;;;;;;8.32;5.20;;;;;;;21.45;57.67;98822.16;20689383;28;20056;-80
2022/11/17 07:03:11;;;;;;;6.35;4.28;;;;;;;21.48;57.94;98839.44;20687290;28;20109;-80
2022/11/17 07:13:11;;;;;;;9.07;6.20;;;;;;;21.31;54.80;98841.19;20672206;28;20038;-84
2022/11/17 07:23:13;;;;;;;7.28;5.32;;;;;;;21.42;56.30;98839.09;20693783;28;20073;-83
2022/11/17 07:33:14;;;;;;;6.75;4.63;;;;;;;21.50;56.89;98835.66;20683680;28;20029;-84
2022/11/17 07:43:14;;;;;;;7.43;4.70;;;;;;;21.58;57.65;98829.63;20706650;28;20137;-83
2022/11/17 07:53:14;;;;;;;6.97;4.15;;;;;;;21.61;57.34;98847.75;20695331;28;21455;-84
2022/11/17 08:03:15;;;;;;;6.55;3.83;;;;;;;21.68;57.78;98834.75;20715456;28;20056;-83
2022/11/17 08:13:15;;;;;;;10.43;4.47;;;;;;;21.71;57.44;98840.53;20735946;28;20042;-82
2022/11/17 08:23:17;;;;;;;5.63;3.88;;;;;;;;;;20716443;28;20050;-83
2022/11/17 08:33:17;;;;;;;8.02;3.83;;;;;;;21.79;56.96;98866.09;20723633;28;20079;-82
2022/11/17 08:43:17;;;;;;;5.38;3.92;;;;;;;21.85;56.95;98867.25;20716252;28;20132;-84
2022/11/17 08:53:20;;;;;;;6.10;3.95;;;;;;;21.90;56.63;98884.25;20716457;28;20065;-83
2022/11/17 09:03:20;;;;;;;6.78;4.32;;;;;;;21.90;56.44;98893.97;20722457;28;20066;-83
2022/11/17 09:13:20;;;;;;;6.43;5.00;;;;;;;21.89;56.25;98889.69;20711775;28;20046;-83
2022/11/17 09:23:21;;;;;;;6.53;5.07;;;;;;;21.97;56.26;98900.25;20706798;28;20055;-83
2022/11/17 09:33:21;;;;;;;6.80;4.80;;;;;;;21.98;56.01;98912.41;20696909;28;20069;-86
2022/11/17 09:43:34;;;;;;;4.90;4.00;;;;;;;22.02;56.42;98899.75;20708961;28;20192;-85
2022/11/17 09:53:37;;;;;;;6.53;4.47;;;;;;;22.09;56.46;98887.59;20713982;28;20042;-86
2022/11/17 10:03:39;;;;;;;6.50;4.55;;;;;;;22.13;56.38;98872.25;20708740;28;20039;-86
2022/11/17 10:13:39;;;;;;;5.07;4.00;;;;;;;22.15;56.39;98876.38;20721824;28;20045;-88
2022/11/17 10:23:55;;;;;;;7.75;4.70;;;;;;;22.16;56.69;98878.03;20710325;28;20057;-85
2022/11/17 10:33:55;;;;;;;6.38;4.22;;;;;;;22.21;56.60;98870.47;20715681;28;20085;-86
2022/11/17 10:44:01;;;;;;;6.55;4.80;;;;;;;22.30;56.84;98884.50;20725475;28;20054;-85
2022/11/17 10:54:14;;;;;;;5.82;4.63;;;;;;;22.37;56.50;98879.38;20709773;28;20042;-86
2022/11/17 11:04:39;;;;;;;6.20;4.68;;;;;;;22.45;56.53;98891.78;20675954;28;20038;-86
2022/11/17 11:14:45;;;;;;;6.78;4.95;;;;;;;22.47;56.27;98890.66;20709983;28;20121;-86
2022/11/17 11:25:03;;;;;;;5.80;4.88;;;;;;;22.46;56.43;98885.53;20716971;28;20073;-86
2022/11/17 11:35:37;;;;;;;6.75;5.18;;;;;;;22.39;56.69;98891.44;20718939;28;20551;-85
2022/11/17 11:45:50;;;;;;;6.85;5.40;;;;;;;22.37;56.31;98898.69;20718031;28;20050;-85
2022/11/17 11:56:06;;;;;;;6.40;5.32;;;;;;;22.34;56.25;98891.09;20711054;28;20440;-85
2022/11/17 12:16:34;;;;;;;7.15;5.20;;;;;;;22.29;55.80;98900.47;20696080;28;20409;-86
2022/11/17 12:26:35;;;;;;;16.05;9.10;;;;;;;22.32;56.58;98890.41;20704614;28;20089;-85
2022/11/17 12:36:35;;;;;;;17.83;9.27;;;;;;;22.31;57.16;98909.06;20679126;28;20125;-86
2022/11/17 12:46:36;;;;;;;11.90;7.50;;;;;;;22.32;57.58;98906.25;20697928;28;20413;-86
2022/11/17 12:56:44;;;;;;;12.52;7.70;;;;;;;22.39;57.40;98895.91;20708261;28;20042;-88
2022/11/17 13:07:16;;;;;;;11.90;7.00;;;;;;;22.46;56.84;98901.34;20707124;28;20448;-83
2022/11/17 13:17:19;;;;;;;10.57;6.60;;;;;;;22.54;56.47;98901.38;20684463;28;20042;-83
2022/11/17 13:27:28;;;;;;;11.98;6.70;;;;;;;22.59;56.39;98911.44;20706518;28;20531;-83
2022/11/17 13:37:31;;;;;;;10.98;6.25;;;;;;;22.61;56.08;98934.00;20664926;28;20113;-82
2022/11/17 13:47:34;;;;;;;9.63;5.85;;;;;;;22.60;55.46;98935.00;20687294;28;20041;-82
2022/11/17 13:57:36;;;;;;;8.88;5.68;;;;;;;22.55;55.58;98929.41;20703133;28;20048;-82
2022/11/17 14:07:38;;;;;;;9.65;6.15;;;;;;;22.53;55.23;98934.00;20686183;28;20050;-80
2022/11/17 14:17:47;;;;;;;;;;;;;;;22.50;55.46;98934.34;20700502;28;20045;-83
2022/11/17 14:27:47;;;;;;;12.65;5.57;;;;;;;22.43;55.95;98920.16;20683503;28;19941;-79
2022/11/17 14:37:47;;;;;;;10.13;5.63;;;;;;;22.26;54.83;98924.53;20688909;28;20508;-82
2022/11/17 14:47:48;;;;;;;10.00;5.25;;;;;;;22.18;53.86;98928.81;20699196;28;20437;-82
2022/11/17 14:57:48;;;;;;;10.57;5.30;;;;;;;22.14;54.29;98930.13;20705141;28;20441;-82
2022/11/17 15:07:49;;;;;;;9.43;4.80;;;;;;;22.11;54.63;98924.34;20684891;28;20599;-82
2022/11/17 15:17:50;;;;;;;7.40;4.40;;;;;;;22.01;55.07;98927.94;20692236;28;20056;-82
2022/11/17 15:27:51;;;;;;;8.80;4.40;;;;;;;21.94;55.13;98926.91;20688358;28;20046;-82
2022/11/17 15:37:58;;;;;;;6.47;4.53;;;;;;;21.93;55.19;98938.44;20684875;28;20041;-82
2022/11/17 15:47:58;;;;;;;7.78;4.55;;;;;;;21.88;55.18;98927.56;20691623;28;20501;-82
2022/11/17 15:57:59;;;;;;;6.05;4.50;;;;;;;21.92;55.17;98923.59;20695123;28;20073;-83
2022/11/17 16:07:59;;;;;;;22.08;4.90;;;;;;;21.87;56.00;98924.09;20687837;28;20049;-81
2022/11/17 16:17:59;;;;;;;15.18;9.25;;;;;;;21.34;45.13;98904.06;20707446;28;20070;-83
2022/11/17 16:28:00;;;;;;;17.05;7.28;;;;;;;21.49;48.49;98899.03;20686909;28;20528;-80
2022/11/17 16:38:00;;;;;;;18.33;7.25;;;;;;;21.49;50.39;98910.38;20701393;28;20034;-80
2022/11/17 16:48:01;;;;;;;14.70;6.32;;;;;;;21.50;51.16;98943.63;20691043;28;20041;-80
2022/11/17 16:58:04;;;;;;;8.63;5.43;;;;;;;21.57;51.76;98957.06;20685811;28;20394;-81
2022/11/17 17:08:04;;;;;;;10.35;5.15;;;;;;;21.53;52.72;98966.19;20693479;28;20064;-79
2022/11/17 17:18:05;;;;;;;13.95;5.63;;;;;;;21.58;54.30;98983.22;20694244;28;20121;-80
2022/11/17 17:28:06;;;;;;;10.80;5.25;;;;;;;21.62;54.56;98969.72;20688108;28;20080;-81
2022/11/17 17:38:06;;;;;;;10.82;5.53;;;;;;;21.64;54.78;98973.06;20691776;28;20106;-79
2022/11/17 17:48:07;;;;;;;8.40;5.05;;;;;;;21.63;54.85;98971.41;20701741;28;20050;-79
2022/11/17 17:58:08;;;;;;;8.20;5.05;;;;;;;21.62;54.75;98967.94;20696313;28;20393;-84
2022/11/17 18:08:08;;;;;;;9.57;5.10;;;;;;;21.64;54.82;98979.16;20694333;28;20128;-85
2022/11/17 18:18:09;;;;;;;9.23;4.95;;;;;;;21.63;55.37;98984.56;20677452;28;20073;-83
2022/11/17 18:28:09;;;;;;;10.93;5.03;;;;;;;21.65;55.62;98954.44;20690495;28;20041;-83
2022/11/17 18:38:10;;;;;;;9.48;4.88;;;;;;;21.66;56.00;98945.56;20674865;28;20125;-79
2022/11/17 18:48:12;;;;;;;10.15;4.93;;;;;;;21.66;55.95;98935.03;20679733;28;20624;-79
2022/11/17 18:58:13;;;;;;;11.73;5.28;;;;;;;21.67;56.11;98943.78;20672500;28;20049;-80
2022/11/17 19:08:13;;;;;;;8.45;4.05;;;;;;;21.66;56.61;98947.38;20673797;28;20046;-78
2022/11/17 19:18:15;;;;;;;12.85;4.38;;;;;;;21.69;56.61;98944.41;20696093;28;20038;-81
2022/11/17 19:28:15;;;;;;;9.68;4.47;;;;;;;21.68;57.21;98925.16;20683468;28;20046;-79
2022/11/17 19:38:18;;;;;;;7.50;4.60;;;;;;;21.68;57.12;98909.38;20704752;28;20103;-79
2022/11/17 19:48:20;;;;;;;9.55;4.70;;;;;;;21.70;57.24;98927.63;20663873;28;20054;-79
2022/11/17 19:58:20;;;;;;;7.68;4.20;;;;;;;21.69;57.33;98921.56;20684952;28;20033;-80
2022/11/17 20:08:21;;;;;;;7.65;4.43;;;;;;;21.69;57.47;98924.19;20715312;28;20048;-81
2022/11/17 20:18:21;;;;;;;12.02;4.60;;;;;;;21.68;57.68;98924.31;20680811;28;20046;-79
2022/11/17 20:28:22;;;;;;;9.52;4.45;;;;;;;21.68;57.98;98887.44;20669882;28;20042;-79
2022/11/17 20:38:22;;;;;;;10.75;5.55;;;;;;;21.66;57.54;98944.75;20696361;28;20140;-82
2022/11/17 20:48:23;;;;;;;8.98;4.78;;;;;;;21.63;57.61;98950.31;20700299;28;20065;-82
2022/11/17 20:58:25;;;;;;;10.70;4.70;;;;;;;21.62;57.88;98946.88;20692547;28;20034;-82
2022/11/17 21:08:27;;;;;;;9.10;5.38;;;;;;;21.57;57.69;98943.88;20689878;28;20038;-82
2022/11/17 21:18:28;;;;;;;11.48;5.13;;;;;;;21.56;57.71;98916.72;20692415;28;20069;-82
2022/11/17 21:28:28;;;;;;;8.68;4.68;;;;;;;21.56;58.10;98934.31;20711163;28;20583;-83
2022/11/17 21:38:34;;;;;;;9.10;5.00;;;;;;;21.53;57.98;98922.28;20699175;28;20190;-82
2022/11/17 21:48:36;;;;;;;9.32;4.75;;;;;;;21.54;57.96;98944.97;20690945;28;20042;-83
2022/11/17 21:58:37;;;;;;;8.63;5.00;;;;;;;21.54;58.01;98923.09;20708866;28;20053;-83
2022/11/17 22:08:39;;;;;;;8.23;4.95;;;;;;;21.52;57.98;98920.63;20700700;28;20149;-83
2022/11/17 22:18:40;;;;;;;6.40;4.40;;;;;;;21.52;57.91;98917.13;20700590;28;20049;-83
2022/11/17 22:28:40;;;;;;;5.50;4.40;;;;;;;21.51;57.79;98928.69;20684721;28;20042;-83
2022/11/17 22:38:42;;;;;;;10.32;4.68;;;;;;;21.50;57.47;98901.50;20687898;28;20291;-82
2022/11/17 22:48:42;;;;;;;7.63;4.40;;;;;;;21.50;58.08;98893.59;20682322;28;20393;-83
2022/11/17 22:58:42;;;;;;;8.35;4.70;;;;;;;21.50;57.93;98892.78;20678658;28;20038;-83
2022/11/17 23:08:43;;;;;;;8.95;4.65;;;;;;;21.50;57.96;98882.25;20684710;28;20046;-83
2022/11/17 23:18:43;;;;;;;7.03;4.70;;;;;;;21.47;57.98;98882.56;20672199;28;20682;-83
2022/11/17 23:28:44;;;;;;;6.90;4.60;;;;;;;21.45;57.96;98874.81;20653689;28;20050;-82
2022/11/17 23:38:49;;;;;;;8.77;4.35;;;;;;;21.44;57.82;98887.16;20683799;28;20132;-80
2022/11/17 23:48:50;;;;;;;6.47;4.60;;;;;;;21.43;57.79;98880.25;20690463;28;20038;-82
2022/11/17 23:58:51;;;;;;;6.18;4.30;;;;;;;21.44;57.90;98873.16;20686283;28;20030;-81
